»·PEaware :: N646WT KMYF-KBLH

N646WT :: KMYF-KBLH

FLIGHT INFORMATION

Flight Status: Arrived
Operator: Privately registered:
United States
More flights under this callsign
Pilot: Ryan B. (29)
Aircraft: ECLIPSE 500
(EA50)
More flights by this aircraft type
Origin: KMYF Montgomery
United States
Destination: KBLH Blythe
United States
More flights between these airports :: More routes between these airports
Route: JLI V460 BLH
File this flight plan on PilotEdge
Remarks:
Altitude:
(Current/Filed)
170ft
Speed:
(Current/Filed)
330kts
Departed: 26-Apr-17 06:11 PM
Arrived: 26-Apr-17 06:49 PM
Distance/Time
Traveled:
167nm/0:38
Distance/Time
To Go:
Arrived

Flight Plot

Page will automatically refresh every two minutes.

Flight plan parsing failed; only flown route is shown


Map Options




Map Legend


Flown Route
Filed Route
Departure Airport
Arrival Airport
Navaid (VOR, NDB)
Fix

Horizontal Profiles

Position Reports

Time Latitude Longitude Heading Altitude Ground
Speed
26-Apr-17 18:06 32.812937 -117.140658 357 413ft 0kts
26-Apr-17 18:07 32.812937 -117.140658 357 413ft 0kts
26-Apr-17 18:08 32.812937 -117.140658 357 413ft 0kts
26-Apr-17 18:09 32.812937 -117.140658 357 413ft 0kts
26-Apr-17 18:10 32.813565 -117.138809 118 413ft 10kts
26-Apr-17 18:11 32.812061 -117.135000 114 413ft 16kts
26-Apr-17 18:12 32.811498 -117.132052 59 413ft 6kts
26-Apr-17 18:13 32.816522 -117.139902 299 568ft 110kts
26-Apr-17 18:14 32.826193 -117.182052 282 2548ft 182kts
26-Apr-17 18:15 32.838435 -117.245388 281 2979ft 255kts
26-Apr-17 18:16 32.856138 -117.314950 315 6111ft 195kts
26-Apr-17 18:17 32.896736 -117.303076 65 9093ft 224kts
26-Apr-17 18:18 32.913560 -117.240319 61 11944ft 216kts
26-Apr-17 18:19 32.933292 -117.178463 59 14232ft 224kts
26-Apr-17 18:20 32.952672 -117.121313 59 16086ft 232kts
26-Apr-17 18:21 32.974597 -117.058525 60 16988ft 273kts
26-Apr-17 18:22 33.001094 -116.983176 61 16988ft 318kts
26-Apr-17 18:23 33.035514 -116.885415 62 16988ft 342kts
26-Apr-17 18:24 33.069728 -116.787964 63 16989ft 352kts
26-Apr-17 18:25 33.104405 -116.689058 63 16992ft 356kts
26-Apr-17 18:26 33.127015 -116.624458 63 16994ft 358kts
26-Apr-17 18:27 33.170895 -116.535510 51 16973ft 355kts
26-Apr-17 18:28 33.220946 -116.449376 50 16908ft 357kts
26-Apr-17 18:29 33.271742 -116.362476 50 16812ft 358kts
26-Apr-17 18:30 33.316909 -116.285188 51 16788ft 356kts
26-Apr-17 18:31 33.367442 -116.198578 51 16789ft 355kts
26-Apr-17 18:32 33.419695 -116.108822 51 16789ft 355kts
26-Apr-17 18:33 33.469496 -116.023070 51 16855ft 353kts
26-Apr-17 18:34 33.522301 -115.931918 51 16991ft 353kts
26-Apr-17 18:35 33.573680 -115.843032 51 16991ft 354kts
26-Apr-17 18:36 33.615261 -115.747321 83 16988ft 366kts
26-Apr-17 18:37 33.616781 -115.632249 87 16416ft 376kts
26-Apr-17 18:38 33.615081 -115.515785 88 15352ft 362kts
26-Apr-17 18:39 33.612716 -115.404492 89 14136ft 342kts
26-Apr-17 18:40 33.610404 -115.305581 89 12893ft 314kts
26-Apr-17 18:41 33.608161 -115.213402 90 11293ft 279kts
26-Apr-17 18:42 33.606042 -115.127673 91 9527ft 277kts
26-Apr-17 18:43 33.597854 -115.039682 101 7913ft 279kts
26-Apr-17 18:44 33.585042 -114.953273 100 6504ft 273kts
26-Apr-17 18:45 33.583989 -114.867930 91 5363ft 267kts
26-Apr-17 18:46 33.585191 -114.785983 89 4254ft 257kts
26-Apr-17 18:47 33.587037 -114.705467 90 3094ft 247kts
26-Apr-17 18:48 33.608071 -114.654529 350 2257ft 167kts
26-Apr-17 18:49 33.617419 -114.684109 260 1288ft 97kts
26-Apr-17 18:50 33.616545 -114.712421 269 394ft 70kts
26-Apr-17 18:51 33.614856 -114.714559 121 393ft 4kts
26-Apr-17 18:52 33.614303 -114.713805 255 392ft 0kts
26-Apr-17 18:53 33.616352 -114.715119 0 393ft 12kts
26-Apr-17 18:54 33.619616 -114.731990 307 852ft 150kts
26-Apr-17 18:55 33.665723 -114.728671 16 3909ft 210kts
26-Apr-17 18:56 33.716216 -114.708218 12 7626ft 201kts
26-Apr-17 18:57 33.766160 -114.690036 10 10712ft 204kts
26-Apr-17 18:58 33.829920 -114.668121 11 11505ft 290kts
26-Apr-17 18:59 33.913535 -114.639764 12 11501ft 329kts
26-Apr-17 19:00 33.999562 -114.610780 11 11060ft 318kts
26-Apr-17 19:01 34.083658 -114.582517 12 10068ft 311kts
26-Apr-17 19:02 34.154901 -114.558507 11 9105ft 258kts
26-Apr-17 19:03 34.225922 -114.534653 12 8123ft 281kts
26-Apr-17 19:04 34.302618 -114.508755 13 7138ft 293kts
26-Apr-17 19:05 34.378873 -114.478150 16 6149ft 288kts
26-Apr-17 19:06 34.453557 -114.446309 23 5160ft 285kts

Navigation Log

Ident Type
Flight plan parsing failed, navigation log unavailable